Time;durP1;ratioP1;P1;durP2;ratioP2;P2;SDS_P1;SDS_P2;PMS_P1;PMS_P2;Temp;Humidity;BMP_temperature;BMP_pressure;BME280_temperature;BME280_humidity;BME280_pressure;Samples;Min_cycle;Max_cycle;Signal;HPM_P1;HPM_P2
2022/07/03 01:10:09;;;;;;;2.22;1.60;;;16.10;99.90;;;-144.05;58.94;125687.94;6098888;23;20066;-87
2022/07/03 03:30:06;;;;;;;4.05;2.40;;;14.80;99.90;;;-144.05;65.80;125687.94;6101676;23;20033;-89
2022/07/03 03:49:54;;;;;;;3.85;2.28;;;14.90;99.90;;;-144.05;66.16;125687.94;5955484;24;20044;-84
2022/07/03 05:52:31;;;;;;;3.13;1.10;;;21.50;99.90;;;-144.05;43.22;125687.94;6122452;23;20049;-82
2022/07/03 09:42:47;;;;;;;5.00;1.70;;;30.20;59.30;;;-144.05;28.14;125687.94;5806296;24;20030;-79
2022/07/03 09:45:13;;;;;;;1.30;1.20;;;30.60;58.30;;;-144.05;28.70;125687.94;5870164;24;20025;-86
2022/07/03 09:47:39;;;;;;;4.28;1.70;;;30.80;59.10;;;-144.05;28.56;125687.94;5964635;23;20335;-84
2022/07/03 09:50:07;;;;;;;7.30;2.78;;;30.80;59.10;;;-144.05;28.13;125687.94;6074436;23;20014;-84
2022/07/03 09:52:43;;;;;;;3.50;2.00;;;30.60;56.90;;;-144.05;28.33;125687.94;6121038;23;20069;-84
2022/07/03 09:55:09;;;;;;;7.07;1.95;;;30.30;57.10;;;-144.05;29.08;125687.94;6121101;23;20026;-86
2022/07/03 09:58:02;;;;;;;4.95;2.03;;;30.50;59.90;;;-144.05;28.83;125687.94;6121474;23;20393;-85
2022/07/03 10:00:38;;;;;;;7.22;2.30;;;30.80;58.90;;;-144.05;29.01;125687.94;6121498;23;20003;-85
2022/07/03 10:03:09;;;;;;;4.78;1.80;;;30.70;59.10;;;-144.05;29.29;125687.94;6121058;23;20062;-85
2022/07/03 10:05:46;;;;;;;4.70;1.77;;;30.70;60.60;;;-144.05;28.68;125687.94;6099429;23;20013;-84
2022/07/03 10:08:21;;;;;;;3.30;1.90;;;30.70;58.70;;;-144.05;28.19;125687.94;6098780;23;20057;-84
2022/07/03 10:10:49;;;;;;;4.32;1.73;;;30.50;56.80;;;-144.05;29.43;125687.94;6096871;23;20034;-84
2022/07/03 10:13:16;;;;;;;4.43;1.70;;;30.00;58.60;;;-144.05;29.20;125687.94;6097143;23;20042;-84
2022/07/03 10:15:44;;;;;;;3.78;1.90;;;30.00;58.00;;;-144.05;29.66;125687.94;6121790;23;20014;-83
2022/07/03 10:18:14;;;;;;;4.20;1.85;;;29.80;58.60;;;-144.05;29.21;125687.94;6097039;23;20010;-85
2022/07/03 10:20:46;;;;;;;4.10;1.80;;;29.90;58.80;;;-144.05;28.97;125687.94;6121335;23;20118;-86
2022/07/03 10:23:15;;;;;;;5.07;1.70;;;30.10;58.40;;;-144.05;29.86;125687.94;6121658;23;20425;-86
2022/07/03 10:25:44;;;;;;;5.43;1.92;;;29.90;58.90;;;-144.05;28.82;125687.94;6096063;23;20575;-85
2022/07/03 10:28:18;;;;;;;2.85;1.50;;;30.00;57.70;;;-144.05;29.27;125687.94;6121155;23;20347;-84
2022/07/03 10:30:48;;;;;;;3.30;1.70;;;30.20;59.30;;;-144.05;28.82;125687.94;6120222;23;20350;-86
2022/07/03 10:33:17;;;;;;;4.40;1.63;;;30.30;57.80;;;-144.05;28.53;125687.94;6120812;23;20006;-86
2022/07/03 10:35:57;;;;;;;6.55;2.00;;;30.50;57.20;;;-144.05;28.50;125687.94;6121029;23;20014;-84
2022/07/03 10:38:41;;;;;;;4.70;2.00;;;30.30;56.80;;;-144.05;29.82;125687.94;6121742;23;20018;-89
2022/07/03 10:44:46;;;;;;;4.25;1.63;;;28.90;59.80;;;-144.05;30.83;125687.94;6098040;23;20029;-87
2022/07/03 10:47:59;;;;;;;3.67;1.80;;;29.50;62.40;;;-144.05;30.16;125687.94;6096491;23;20007;-82
2022/07/03 10:50:28;;;;;;;3.42;1.77;;;29.90;59.70;;;-144.05;29.22;125687.94;6096363;23;20553;-86
2022/07/03 10:53:28;;;;;;;2.88;1.52;;;29.80;57.60;;;-144.05;29.29;125687.94;6095876;23;20479;-83
2022/07/03 10:56:06;;;;;;;5.30;1.90;;;30.30;58.10;;;-144.05;28.94;125687.94;6096626;23;20010;-83
2022/07/03 10:58:32;;;;;;;4.45;1.90;;;29.90;57.50;;;-144.05;28.24;125687.94;6073053;23;20011;-85
2022/07/03 11:00:58;;;;;;;3.60;1.38;;;30.00;55.10;;;-144.05;29.22;125687.94;6099528;23;20010;-85
2022/07/03 11:04:00;;;;;;;3.63;1.50;;;30.30;57.60;;;-144.05;28.43;125687.94;6073642;23;20033;-83
2022/07/03 11:06:44;;;;;;;4.32;1.55;;;30.40;56.70;;;-144.05;28.50;125687.94;6097602;23;20016;-85
2022/07/03 11:09:15;;;;;;;6.25;1.45;;;29.90;55.90;;;-144.05;29.03;125687.94;6097808;23;20079;-85
2022/07/03 11:11:57;;;;;;;2.10;1.00;;;30.60;57.30;;;-144.05;29.02;125687.94;6096706;23;20057;-85
2022/07/03 11:14:29;;;;;;;3.65;1.40;;;29.90;56.40;;;-144.05;30.09;125687.94;6099536;23;20006;-85
2022/07/03 11:17:38;;;;;;;1.58;1.08;;;29.00;58.20;;;-144.05;30.45;125687.94;6100210;23;20014;-88
2022/07/03 11:20:23;;;;;;;2.53;1.05;;;28.60;58.00;;;-144.05;31.13;125687.94;6073047;23;20148;-86
2022/07/03 11:23:09;;;;;;;4.38;1.20;;;28.40;60.40;;;-144.05;29.93;125687.94;6098129;23;20007;-86
2022/07/03 11:25:47;;;;;;;5.47;1.00;;;28.60;58.80;;;-144.05;29.69;125687.94;6098216;23;20010;-87
2022/07/03 11:28:32;;;;;;;4.20;1.13;;;30.40;60.30;;;-144.05;28.06;125687.94;6097334;23;20011;-85
2022/07/03 11:31:13;;;;;;;2.42;0.70;;;30.20;55.70;;;-144.05;29.38;125687.94;6097006;23;20396;-85
2022/07/03 11:33:50;;;;;;;3.50;1.10;;;29.40;57.50;;;-144.05;29.48;125687.94;6097281;23;20006;-86
2022/07/03 11:36:16;;;;;;;3.08;0.95;;;28.90;57.00;;;-144.05;29.93;125687.94;6097094;23;20062;-88
2022/07/03 11:39:09;;;;;;;3.83;1.23;;;28.80;57.70;;;-144.05;30.22;125687.94;6097717;23;20010;-87
2022/07/03 11:41:35;;;;;;;1.83;0.85;;;28.20;57.50;;;-144.05;31.47;125687.94;6095727;23;20495;-85
2022/07/03 11:44:05;;;;;;;3.90;1.10;;;27.90;60.70;;;-144.05;30.73;125687.94;6096632;23;20015;-87
2022/07/03 11:46:39;;;;;;;3.92;1.30;;;28.50;60.70;;;-144.05;29.51;125687.94;6072827;23;20039;-85
2022/07/03 11:49:15;;;;;;;3.22;1.15;;;29.40;58.90;;;-144.05;28.73;125687.94;6112471;23;19994;-83
2022/07/03 11:52:00;;;;;;;3.00;1.10;;;29.50;56.50;;;-144.05;29.04;125687.94;6084844;23;20010;-86
2022/07/03 11:54:51;;;;;;;3.13;1.00;;;29.10;56.30;;;-144.05;29.81;125687.94;6072129;23;20330;-84
2022/07/03 11:57:18;;;;;;;1.92;0.80;;;29.00;57.50;;;-144.05;28.97;125687.94;6097694;23;20288;-86
2022/07/03 11:59:44;;;;;;;2.83;0.73;;;29.60;56.80;;;-144.05;28.10;125687.94;6071943;23;20117;-86
2022/07/03 12:02:10;;;;;;;5.78;1.10;;;30.00;55.10;;;-144.05;28.59;125687.94;6071827;23;20022;-83
2022/07/03 12:04:39;;;;;;;2.60;0.85;;;30.30;56.10;;;-144.05;28.42;125687.94;6072007;23;20014;-86
2022/07/03 12:07:05;;;;;;;3.20;0.90;;;30.00;55.30;;;-144.05;29.15;125687.94;6096850;23;20013;-86
2022/07/03 12:09:37;;;;;;;3.75;0.90;;;30.30;57.60;;;-144.05;28.85;125687.94;6071142;23;20014;-86
2022/07/03 12:12:09;;;;;;;3.63;1.15;;;30.40;56.40;;;-144.05;28.45;125687.94;6095717;23;20010;-83
2022/07/03 12:14:55;;;;;;;2.92;1.00;;;30.60;55.80;;;-144.05;28.77;125687.94;6096797;23;20041;-84
2022/07/03 12:17:25;;;;;;;2.08;0.80;;;30.00;56.40;;;-144.05;29.43;125687.94;6095151;23;20345;-86
2022/07/03 12:20:01;;;;;;;1.10;0.60;;;29.90;57.10;;;-144.05;27.87;125687.94;6095094;23;20041;-85
2022/07/03 12:22:41;;;;;;;3.47;0.80;;;30.30;55.70;;;-144.05;28.01;125687.94;6094351;23;20006;-85
2022/07/03 12:25:11;;;;;;;3.75;1.20;;;30.50;54.90;;;-144.05;27.49;125687.94;6096245;23;20006;-85
2022/07/03 12:27:43;;;;;;;3.05;1.08;;;30.80;54.30;;;-144.05;27.32;125687.94;6071288;23;20061;-83
2022/07/03 12:30:27;;;;;;;2.78;1.08;;;30.80;52.40;;;-144.05;27.48;125687.94;6095402;23;20011;-84
2022/07/03 12:33:00;;;;;;;2.88;0.85;;;30.90;54.10;;;-144.05;28.28;125687.94;6095855;23;20010;-83
2022/07/03 12:35:29;;;;;;;1.73;0.90;;;31.10;54.90;;;-144.05;26.14;125687.94;6095973;23;20467;-84
2022/07/03 12:37:57;;;;;;;2.78;0.88;;;31.20;50.60;;;-144.05;26.68;125687.94;6071640;23;20011;-83
2022/07/03 12:40:23;;;;;;;3.67;0.63;;;31.10;51.60;;;-144.05;26.52;125687.94;6096780;23;20010;-83
2022/07/03 12:42:54;;;;;;;4.13;0.80;;;31.30;51.00;;;-144.05;26.23;125687.94;6094838;23;20002;-84
2022/07/03 12:45:27;;;;;;;1.15;0.60;;;30.80;49.30;;;-144.05;26.29;125687.94;6107630;23;20018;-85
2022/07/03 12:48:15;;;;;;;1.13;0.80;;;30.80;49.90;;;-144.05;26.87;125687.94;6095248;23;20010;-84
2022/07/03 12:50:52;;;;;;;4.68;1.00;;;30.70;51.60;;;-144.05;26.57;125687.94;6095067;23;20017;-84
2022/07/03 12:53:35;;;;;;;1.80;0.98;;;30.60;50.50;;;-144.05;26.59;125687.94;6120255;23;20014;-82
2022/07/03 12:56:08;;;;;;;1.70;0.90;;;30.80;51.70;;;-144.05;26.81;125687.94;6120937;23;20010;-85
2022/07/03 13:01:33;;;;;;;2.88;1.00;;;30.00;51.80;;;-144.05;26.55;125687.94;6097220;23;20344;-84
2022/07/03 13:04:00;;;;;;;3.53;1.13;;;29.90;50.90;;;-144.05;27.08;125687.94;6120612;23;20014;-84
2022/07/03 13:06:26;;;;;;;2.30;0.93;;;30.00;51.20;;;-144.05;26.17;125687.94;6099757;23;20053;-84
2022/07/03 13:09:05;;;;;;;4.00;1.25;;;30.00;49.80;;;-144.05;26.88;125687.94;6098127;23;20018;-86
2022/07/03 13:11:40;;;;;;;2.40;1.08;;;29.70;51.20;;;-144.05;27.65;125687.94;6122355;23;20010;-86
2022/07/03 13:14:18;;;;;;;5.10;1.00;;;29.20;52.90;;;-144.05;28.22;125687.94;6121912;23;20024;-83
2022/07/03 13:16:57;;;;;;;4.20;1.00;;;28.80;53.10;;;-144.05;28.05;125687.94;6121378;23;20038;-83
2022/07/03 13:19:27;;;;;;;5.38;1.00;;;29.10;53.10;;;-144.05;27.83;125687.94;6121594;23;20010;-87
2022/07/03 13:21:58;;;;;;;2.90;0.88;;;29.70;54.00;;;-144.05;27.30;125687.94;6121564;23;20445;-86
2022/07/03 13:24:24;;;;;;;4.55;0.90;;;30.30;53.40;;;-144.05;26.95;125687.94;6097596;23;20030;-85
2022/07/03 13:26:53;;;;;;;5.93;1.20;;;30.80;52.30;;;-144.05;26.57;125687.94;6121719;23;20007;-85
2022/07/03 13:29:23;;;;;;;4.18;1.00;;;31.10;51.00;;;-144.05;26.55;125687.94;6123002;23;20106;-86
2022/07/03 13:31:49;;;;;;;5.57;1.85;;;31.00;50.70;;;-144.05;27.02;125687.94;6099050;23;20375;-86
2022/07/03 13:34:15;;;;;;;2.25;0.88;;;30.80;51.00;;;-144.05;26.89;125687.94;6098238;23;20026;-84
2022/07/03 13:36:41;;;;;;;2.05;1.10;;;30.60;50.40;;;-144.05;27.00;125687.94;6121618;23;20468;-84
2022/07/03 13:39:08;;;;;;;5.00;1.52;;;30.60;51.90;;;-144.05;27.67;125687.94;6122261;23;20003;-87
2022/07/03 13:41:35;;;;;;;2.53;1.52;;;30.00;52.30;;;-144.05;28.87;125687.94;6121884;23;20335;-86
2022/07/03 13:44:01;;;;;;;3.03;1.60;;;29.00;54.20;;;-144.05;29.34;125687.94;6097850;23;20010;-85
2022/07/03 13:46:27;;;;;;;1.85;1.13;;;29.00;55.90;;;-144.05;28.72;125687.94;6073244;23;20421;-84
2022/07/03 13:48:53;;;;;;;3.83;1.10;;;29.20;55.10;;;-144.05;28.45;125687.94;6074662;23;20390;-86
2022/07/03 13:51:20;;;;;;;4.78;1.48;;;29.40;55.10;;;-144.05;28.64;125687.94;6100224;23;20110;-86
2022/07/03 13:53:47;;;;;;;3.72;1.15;;;29.40;54.50;;;-144.05;28.26;125687.94;6114111;23;20049;-84
2022/07/03 13:56:18;;;;;;;1.88;0.70;;;29.80;55.00;;;-144.05;27.62;125687.94;6121213;23;20042;-83
2022/07/03 13:58:45;;;;;;;3.63;1.00;;;30.20;54.00;;;-144.05;27.00;125687.94;6116854;23;20042;-83
2022/07/03 14:01:11;;;;;;;4.22;0.80;;;30.50;52.20;;;-144.05;27.64;125687.94;6117527;23;20071;-85
2022/07/03 14:03:37;;;;;;;3.55;1.02;;;30.70;52.90;;;-144.05;27.34;125687.94;6097447;23;20010;-84
2022/07/03 14:06:04;;;;;;;3.83;2.15;;;30.50;51.50;;;-144.05;27.59;125687.94;6097776;23;20093;-83
2022/07/03 14:08:30;;;;;;;4.13;1.30;;;30.50;52.80;;;-144.05;27.56;125687.94;6073008;23;20385;-87
2022/07/03 14:10:56;;;;;;;1.80;0.90;;;30.30;52.80;;;-144.05;27.79;125687.94;6073584;23;20020;-87
2022/07/03 14:13:22;;;;;;;4.18;1.20;;;30.30;53.40;;;-144.05;27.56;125687.94;6099385;23;20085;-84
2022/07/03 14:15:48;;;;;;;4.70;2.50;;;30.30;53.10;;;-144.05;28.13;125687.94;6096901;23;20013;-83
2022/07/03 14:18:14;;;;;;;10.57;8.32;;;29.90;53.70;;;-144.05;28.70;125687.94;6073729;23;20105;-84
2022/07/03 14:20:40;;;;;;;7.53;4.88;;;29.30;55.00;;;-144.05;29.26;125687.94;6099155;23;20025;-83
2022/07/03 14:23:06;;;;;;;7.40;2.58;;;28.80;56.40;;;-144.05;29.52;125687.94;6073798;23;20011;-85
2022/07/03 14:25:33;;;;;;;2.67;1.92;;;28.30;56.60;;;-144.05;30.42;125687.94;6097479;23;20015;-84
2022/07/03 14:33:28;;;;;;;4.80;3.30;;;27.80;57.20;;;-144.05;30.32;125687.94;6099594;23;20082;-85
2022/07/03 14:35:54;;;;;;;5.18;1.30;;;28.20;58.30;;;-144.05;29.37;125687.94;6073773;23;20093;-86
2022/07/03 14:38:20;;;;;;;4.88;0.88;;;28.50;56.00;;;-144.05;29.68;125687.94;6073007;23;20038;-85
2022/07/03 14:40:46;;;;;;;6.35;1.73;;;28.80;56.90;;;-144.05;28.72;125687.94;6073547;23;20385;-83
2022/07/03 14:43:14;;;;;;;2.63;1.30;;;29.10;55.30;;;-144.05;28.67;125687.94;6097640;23;20018;-84
2022/07/03 14:45:40;;;;;;;2.25;1.10;;;28.90;55.30;;;-144.05;29.25;125687.94;6090002;23;20045;-82
2022/07/03 14:48:06;;;;;;;2.67;1.10;;;28.60;56.20;;;-144.05;29.30;125687.94;6098784;23;20026;-82
2022/07/03 14:50:32;;;;;;;6.47;1.70;;;28.40;56.20;;;-144.05;29.51;125687.94;6121137;23;20018;-86
2022/07/03 14:52:58;;;;;;;4.70;2.15;;;28.30;57.10;;;-144.05;29.03;125687.94;6121438;23;20092;-84
2022/07/03 14:55:36;;;;;;;2.97;1.77;;;28.40;56.50;;;-144.05;29.30;125687.94;6120751;23;20018;-82
2022/07/03 14:58:25;;;;;;;4.90;1.50;;;28.80;57.10;;;-144.05;29.34;125687.94;6121540;23;20074;-86
2022/07/03 15:00:55;;;;;;;1.85;1.10;;;29.20;56.40;;;-144.05;28.26;125687.94;6122656;23;20006;-84
2022/07/03 15:03:34;;;;;;;6.03;3.83;;;28.90;54.30;;;-144.05;29.28;125687.94;6122912;23;20006;-84
2022/07/03 15:06:08;;;;;;;8.15;7.28;;;28.30;56.00;;;-144.05;29.96;125687.94;6122966;23;20069;-86
2022/07/03 15:08:34;;;;;;;13.60;11.25;;;27.70;56.90;;;-144.05;30.66;125687.94;6099450;23;20353;-86
2022/07/03 15:14:19;;;;;;;3.40;1.45;;;26.70;58.80;;;-144.05;31.54;125687.94;6099352;23;20025;-84
2022/07/03 15:16:50;;;;;;;3.60;1.30;;;26.50;59.80;;;-144.05;31.93;125687.94;6097241;23;20010;-83
2022/07/03 15:19:20;;;;;;;7.72;5.85;;;26.30;60.70;;;-144.05;32.08;125687.94;6121778;23;20433;-86
2022/07/03 15:21:48;;;;;;;3.97;1.60;;;26.20;61.00;;;-144.05;32.21;125687.94;6099098;23;20002;-85
2022/07/03 15:24:23;;;;;;;3.38;1.25;;;26.20;61.40;;;-144.05;32.44;125687.94;6099179;23;20011;-86
2022/07/03 15:26:53;;;;;;;4.85;3.22;;;26.00;62.00;;;-144.05;32.68;125687.94;6097835;23;20085;-84
2022/07/03 15:29:20;;;;;;;7.65;4.20;;;26.00;62.80;;;-144.05;33.08;125687.94;6097610;23;20492;-86
2022/07/03 15:31:47;;;;;;;5.60;2.83;;;25.90;63.40;;;-144.05;33.59;125687.94;6096652;23;20009;-82
2022/07/03 15:34:14;;;;;;;11.27;7.22;;;25.80;64.90;;;-144.05;33.19;125687.94;6122588;23;20013;-84
2022/07/03 15:36:57;;;;;;;4.72;2.10;;;25.70;63.60;;;-144.05;33.71;125687.94;6097537;23;20081;-84
2022/07/03 15:39:55;;;;;;;33.42;25.42;;;25.60;64.20;;;-144.05;34.05;125687.94;6122694;23;20011;-85
2022/07/03 15:45:41;;;;;;;92.00;46.60;;;25.50;64.20;;;-144.05;34.05;125687.94;6126245;23;20032;-85
2022/07/03 15:48:40;;;;;;;9.85;6.70;;;25.50;65.20;;;-144.05;34.18;125687.94;6151742;23;20068;-87
2022/07/03 15:51:24;;;;;;;7.75;2.20;;;25.50;65.60;;;-144.05;34.24;125687.94;6128459;23;20017;-85
2022/07/03 15:53:58;;;;;;;3.05;1.20;;;25.60;66.10;;;-144.05;34.18;125687.94;6151328;23;20010;-85
2022/07/03 15:56:42;;;;;;;2.50;1.15;;;25.80;66.40;;;-144.05;33.70;125687.94;6126290;23;20021;-86
2022/07/03 15:59:16;;;;;;;2.50;1.00;;;25.90;65.60;;;-144.05;34.03;125687.94;6150666;23;20506;-87
2022/07/03 16:02:15;;;;;;;5.65;3.40;;;26.30;66.10;;;-144.05;32.68;125687.94;6150207;23;20013;-86
2022/07/03 16:04:51;;;;;;;3.40;1.35;;;26.50;64.70;;;-144.05;33.11;125687.94;6128373;23;20008;-85
2022/07/03 16:07:19;;;;;;;1.35;0.80;;;26.60;64.00;;;-144.05;32.31;125687.94;6126987;23;20021;-85
2022/07/03 16:09:47;;;;;;;2.60;1.00;;;26.70;62.30;;;-144.05;32.44;125687.94;6151047;23;20093;-85
2022/07/03 16:12:21;;;;;;;1.85;0.70;;;26.80;62.30;;;-144.05;32.19;125687.94;6151358;23;20503;-87
2022/07/03 16:14:49;;;;;;;1.92;0.82;;;26.90;62.50;;;-144.05;32.37;125687.94;6129174;23;20020;-86
2022/07/03 16:17:21;;;;;;;2.13;1.10;;;26.70;62.20;;;-144.05;32.49;125687.94;6129855;23;20010;-84
2022/07/03 16:19:51;;;;;;;4.07;0.90;;;26.50;62.60;;;-144.05;32.82;125687.94;6130089;23;20094;-84
2022/07/03 16:22:18;;;;;;;1.90;0.77;;;26.20;63.00;;;-144.05;33.03;125687.94;6131438;23;20006;-87
2022/07/03 16:24:46;;;;;;;2.30;0.80;;;25.90;63.40;;;-144.05;33.20;125687.94;6131767;23;20013;-85
2022/07/03 16:27:20;;;;;;;2.90;1.38;;;25.60;63.80;;;-144.05;34.10;125687.94;6129329;23;20124;-87
2022/07/03 16:29:48;;;;;;;4.57;2.42;;;25.70;65.90;;;-144.05;33.26;125687.94;6167855;23;20010;-85
2022/07/03 16:32:20;;;;;;;3.90;2.17;;;25.80;65.30;;;-144.05;33.22;125687.94;6155845;23;20014;-86
2022/07/03 16:35:29;;;;;;;7.32;3.45;;;25.80;64.20;;;-144.05;33.50;125687.94;6154023;23;20325;-86
2022/07/03 16:38:02;;;;;;;8.80;5.18;;;25.50;65.10;;;-144.05;34.79;125687.94;6123861;23;20009;-86
2022/07/03 16:40:31;;;;;;;6.90;3.00;;;25.10;67.20;;;-144.05;34.74;125687.94;6128260;23;20064;-86
2022/07/03 16:43:12;;;;;;;6.93;2.00;;;24.80;67.10;;;-144.05;35.21;125687.94;6153511;23;20013;-84
2022/07/03 16:45:42;;;;;;;5.63;3.95;;;24.40;68.40;;;-144.05;35.86;125687.94;6129810;23;20444;-87
2022/07/03 16:48:23;;;;;;;6.43;4.20;;;24.20;70.10;;;-144.05;36.03;125687.94;6130887;23;20033;-83
2022/07/03 16:51:00;;;;;;;4.35;2.30;;;23.90;70.30;;;-144.05;36.42;125687.94;6103632;23;20024;-85
2022/07/03 16:53:26;;;;;;;4.78;2.55;;;23.80;70.90;;;-144.05;36.34;125687.94;6103675;23;20014;-84
2022/07/03 16:55:53;;;;;;;3.45;1.08;;;23.90;71.20;;;-144.05;36.27;125687.94;6102987;23;20013;-87
2022/07/03 16:58:23;;;;;;;5.35;2.10;;;24.00;71.20;;;-144.05;35.99;125687.94;6127606;23;20014;-86
2022/07/03 17:00:50;;;;;;;2.70;1.77;;;24.20;71.00;;;-144.05;36.30;125687.94;6129672;23;20328;-89
2022/07/03 17:03:20;;;;;;;2.67;1.17;;;24.40;71.70;;;-144.05;35.50;125687.94;6130488;23;20317;-87
2022/07/03 17:05:51;;;;;;;2.17;1.35;;;24.50;69.60;;;-144.05;35.44;125687.94;6105841;23;20005;-83
2022/07/03 17:08:22;;;;;;;2.17;1.10;;;24.40;69.70;;;-144.05;35.32;125687.94;6129518;23;20036;-87
2022/07/03 17:10:50;;;;;;;6.93;2.53;;;24.50;70.60;;;-144.05;35.81;125687.94;6129827;23;20006;-85
2022/07/03 17:13:16;;;;;;;3.35;1.77;;;24.50;70.50;;;-144.05;36.01;125687.94;6129674;23;20030;-85
2022/07/03 17:15:46;;;;;;;9.60;5.18;;;24.40;70.90;;;-144.05;36.09;125687.94;6127816;23;20025;-85
2022/07/03 17:18:13;;;;;;;5.15;2.47;;;24.30;71.20;;;-144.05;36.55;125687.94;6129067;23;20436;-84
2022/07/03 17:20:44;;;;;;;28.80;16.77;;;24.10;72.00;;;-144.05;37.02;125687.94;6131723;23;20006;-86
2022/07/03 17:23:21;;;;;;;10.82;4.88;;;23.90;73.00;;;-144.05;37.19;125687.94;6126198;23;20006;-87
2022/07/03 17:25:58;;;;;;;9.73;5.00;;;23.70;73.60;;;-144.05;37.53;125687.94;6126637;23;20006;-88
2022/07/03 17:28:30;;;;;;;4.57;2.13;;;23.60;74.40;;;-144.05;37.15;125687.94;6125790;23;20041;-87
2022/07/03 17:31:03;;;;;;;3.25;1.13;;;23.60;74.10;;;-144.05;37.39;125687.94;6102143;23;20021;-87
2022/07/03 17:33:31;;;;;;;44.85;32.22;;;23.50;74.40;;;-144.05;37.63;125687.94;6101913;23;20096;-86
2022/07/03 17:36:10;;;;;;;16.88;13.18;;;23.50;75.10;;;-144.05;37.65;125687.94;6105880;23;20350;-86
2022/07/03 17:38:40;;;;;;;4.93;1.90;;;23.40;76.10;;;-144.05;37.82;125687.94;6103937;23;20010;-84
2022/07/03 17:41:06;;;;;;;8.52;5.57;;;23.30;76.00;;;-144.05;37.82;125687.94;6130607;23;20037;-86
2022/07/03 17:43:32;;;;;;;6.60;4.78;;;23.30;76.10;;;-144.05;37.87;125687.94;6103937;23;20009;-85
2022/07/03 17:46:00;;;;;;;2.13;1.00;;;23.20;78.00;;;-144.05;37.98;125687.94;6126705;23;20077;-87
2022/07/03 17:48:28;;;;;;;5.78;1.40;;;23.20;77.30;;;-144.05;37.80;125687.94;6124572;23;20333;-87
2022/07/03 17:50:56;;;;;;;5.88;3.53;;;23.20;77.80;;;-144.05;37.81;125687.94;6125259;23;20021;-86
2022/07/03 17:53:25;;;;;;;1.60;1.00;;;23.10;77.10;;;-144.05;37.67;125687.94;6126967;23;20014;-87
2022/07/03 17:55:52;;;;;;;4.15;1.65;;;23.00;77.30;;;-144.05;38.06;125687.94;6151562;23;20010;-86
2022/07/03 17:58:19;;;;;;;4.78;1.20;;;22.90;78.40;;;-144.05;37.92;125687.94;6130272;23;20477;-86
2022/07/03 18:00:47;;;;;;;2.30;0.90;;;22.80;77.60;;;-144.05;38.39;125687.94;6152187;23;20010;-86
2022/07/03 18:03:13;;;;;;;1.85;0.80;;;22.70;79.20;;;-144.05;37.97;125687.94;6128884;23;20006;-86
2022/07/03 18:05:50;;;;;;;2.45;0.73;;;22.50;78.20;;;-144.05;37.89;125687.94;6130230;23;20010;-87
2022/07/03 18:08:28;;;;;;;5.00;1.80;;;22.50;78.60;;;-144.05;37.87;125687.94;6129314;23;20010;-86
2022/07/03 18:11:17;;;;;;;8.93;5.95;;;22.40;79.10;;;-144.05;37.70;125687.94;6152386;23;20467;-86
2022/07/03 18:13:59;;;;;;;3.90;1.42;;;22.40;78.60;;;-144.05;37.63;125687.94;6129970;23;20025;-86
2022/07/03 18:16:37;;;;;;;2.85;0.90;;;22.50;79.00;;;-144.05;37.61;125687.94;6130664;23;20065;-86
2022/07/03 18:19:04;;;;;;;3.22;0.90;;;22.50;79.20;;;-144.05;36.91;125687.94;6129258;23;20520;-88
2022/07/03 18:21:33;;;;;;;1.52;0.77;;;22.50;76.90;;;-144.05;37.16;125687.94;6154371;23;20013;-85
2022/07/03 18:24:02;;;;;;;1.48;0.70;;;22.50;78.30;;;-144.05;37.77;125687.94;6130609;23;20009;-85
2022/07/03 18:26:33;;;;;;;2.40;0.70;;;22.50;79.50;;;-144.05;38.52;125687.94;6155155;23;20006;-85
2022/07/03 18:28:59;;;;;;;1.98;0.95;;;22.50;81.70;;;-144.05;38.94;125687.94;6131205;23;20006;-85
2022/07/03 18:31:26;;;;;;;2.20;1.10;;;22.40;83.30;;;-144.05;39.42;125687.94;6131942;23;20013;-85
2022/07/03 18:33:55;;;;;;;2.67;1.15;;;22.30;85.20;;;-144.05;40.06;125687.94;6135436;23;20014;-88
2022/07/03 18:36:22;;;;;;;2.25;1.05;;;22.10;86.80;;;-144.05;40.20;125687.94;6156539;23;20392;-86
2022/07/03 18:38:49;;;;;;;2.70;1.33;;;22.10;89.20;;;-144.05;40.45;125687.94;6163385;23;20073;-88
2022/07/03 18:41:17;;;;;;;1.23;0.80;;;22.00;90.60;;;-144.05;40.92;125687.94;6149226;23;20123;-85
2022/07/03 18:43:45;;;;;;;5.97;2.15;;;21.80;92.30;;;-144.05;41.07;125687.94;6165960;23;20037;-85
2022/07/03 18:46:11;;;;;;;4.07;1.60;;;21.80;94.10;;;-144.05;41.48;125687.94;6133330;23;20037;-86
2022/07/03 18:48:38;;;;;;;4.32;1.10;;;21.70;96.10;;;-144.05;41.67;125687.94;6154653;23;20006;-85
2022/07/03 18:51:21;;;;;;;4.57;1.20;;;21.60;98.10;;;-144.05;42.10;125687.94;6131741;23;20002;-84
2022/07/03 18:54:29;;;;;;;7.47;1.35;;;21.40;99.90;;;-144.05;42.15;125687.94;6154710;23;20256;-87
2022/07/03 18:57:36;;;;;;;2.72;0.80;;;21.30;99.90;;;-144.05;42.46;125687.94;6127773;23;20088;-88
2022/07/03 19:00:14;;;;;;;2.90;1.17;;;21.20;99.90;;;-144.05;42.67;125687.94;6106924;23;20010;-88
2022/07/03 19:03:12;;;;;;;2.35;0.88;;;21.10;99.90;;;-144.05;42.79;125687.94;6154359;23;20006;-86
2022/07/03 19:05:56;;;;;;;4.72;1.40;;;20.90;99.90;;;-144.05;42.86;125687.94;6153807;23;20344;-88
2022/07/03 19:08:45;;;;;;;3.63;1.35;;;20.90;99.90;;;-144.05;42.89;125687.94;6129441;23;20428;-86
2022/07/03 19:11:21;;;;;;;3.08;1.17;;;20.80;99.90;;;-144.05;43.22;125687.94;6128699;23;20010;-85
2022/07/03 19:14:06;;;;;;;3.55;1.17;;;20.70;99.90;;;-144.05;43.12;125687.94;6152536;23;20006;-87
2022/07/03 19:16:46;;;;;;;2.78;1.27;;;20.60;99.90;;;-144.05;43.14;125687.94;6127608;23;20038;-85
2022/07/03 19:19:16;;;;;;;3.13;0.80;;;20.60;99.90;;;-144.05;43.18;125687.94;6151760;23;20156;-85
2022/07/03 19:21:43;;;;;;;5.70;1.15;;;20.60;99.90;;;-144.05;43.05;125687.94;6151779;23;20006;-86
2022/07/03 19:24:12;;;;;;;2.92;1.08;;;20.60;99.90;;;-144.05;42.94;125687.94;6132333;23;20431;-86
2022/07/03 19:26:41;;;;;;;3.15;1.23;;;20.60;99.90;;;-144.05;42.99;125687.94;6161622;23;20002;-87
2022/07/03 19:29:08;;;;;;;4.93;1.20;;;20.60;99.90;;;-144.05;43.13;125687.94;6139896;23;20009;-88
2022/07/03 19:31:35;;;;;;;3.42;0.95;;;20.60;99.90;;;-144.05;42.98;125687.94;6131543;23;20347;-85
2022/07/03 19:34:01;;;;;;;2.63;1.00;;;20.50;99.90;;;-144.05;43.05;125687.94;6130359;23;20400;-86
2022/07/03 19:36:27;;;;;;;1.80;1.20;;;20.40;99.90;;;-144.05;43.10;125687.94;6130828;23;20013;-86
2022/07/03 19:38:53;;;;;;;4.47;1.10;;;20.40;99.90;;;-144.05;43.19;125687.94;6128985;23;20014;-86
2022/07/03 19:41:19;;;;;;;5.88;1.63;;;20.30;99.90;;;-144.05;43.54;125687.94;6129265;23;20085;-87
2022/07/03 19:43:45;;;;;;;4.03;0.95;;;20.30;99.90;;;-144.05;43.86;125687.94;6152143;23;20336;-88
2022/07/03 19:46:12;;;;;;;3.72;1.52;;;20.20;99.90;;;-144.05;43.97;125687.94;6129571;23;20424;-88
2022/07/03 19:48:38;;;;;;;2.03;1.00;;;20.10;99.90;;;-144.05;43.97;125687.94;6130207;23;20063;-89
2022/07/03 19:51:04;;;;;;;2.60;1.02;;;20.10;99.90;;;-144.05;44.04;125687.94;6154112;23;20093;-88
2022/07/03 19:53:32;;;;;;;3.03;0.93;;;20.00;99.90;;;-144.05;44.25;125687.94;6128515;23;20036;-86
2022/07/03 19:55:59;;;;;;;2.92;0.80;;;19.90;99.90;;;-144.05;44.21;125687.94;6153081;23;20017;-85
2022/07/03 19:58:25;;;;;;;4.43;1.63;;;19.90;99.90;;;-144.05;44.39;125687.94;6129206;23;20002;-86
2022/07/03 20:00:51;;;;;;;2.15;0.82;;;19.80;99.90;;;-144.05;44.55;125687.94;6152951;23;20028;-87
2022/07/03 20:03:17;;;;;;;2.20;0.98;;;19.70;99.90;;;-144.05;44.54;125687.94;6128543;23;20010;-87
2022/07/03 20:05:43;;;;;;;2.25;1.10;;;19.70;99.90;;;-144.05;44.39;125687.94;6129873;23;20492;-86
2022/07/03 20:08:10;;;;;;;5.00;1.27;;;19.70;99.90;;;-144.05;44.25;125687.94;6152368;23;20436;-88
2022/07/03 20:10:36;;;;;;;1.63;0.95;;;19.70;99.90;;;-144.05;44.15;125687.94;6128506;23;20006;-84
2022/07/03 20:13:02;;;;;;;3.15;0.85;;;19.70;99.90;;;-144.05;44.24;125687.94;6126419;23;20017;-87